createdAt,value
2019-04-28T00:02:01.426Z,53.80
2019-04-28T00:04:08.302Z,56.23
2019-04-28T00:06:13.999Z,53.15
2019-04-28T00:08:20.844Z,54.23
2019-04-28T00:10:26.530Z,59.80
2019-04-28T00:12:32.183Z,57.15
2019-04-28T00:14:37.821Z,61.48
2019-04-28T00:16:43.515Z,55.40
2019-04-28T00:18:50.965Z,56.10
2019-04-28T00:21:07.224Z,50.50
2019-04-28T00:23:16.969Z,48.33
2019-04-28T00:25:25.362Z,48.15
2019-04-28T00:27:31.629Z,54.03
2019-04-28T00:29:41.211Z,74.50
2019-04-28T00:31:44.582Z,61.33
2019-04-28T00:33:51.456Z,62.38
2019-04-28T00:35:58.349Z,60.63
2019-04-28T00:38:03.955Z,61.55
2019-04-28T00:40:11.389Z,53.33
2019-04-28T00:42:16.976Z,66.33
2019-04-28T00:44:23.404Z,58.80
2019-04-28T00:46:31.810Z,60.50
2019-04-28T00:48:38.491Z,55.52
2019-04-28T00:50:44.644Z,63.17
2019-04-28T00:52:51.809Z,51.02
2019-04-28T00:54:58.617Z,51.08
2019-04-28T00:57:04.298Z,55.20
2019-04-28T00:59:11.712Z,62.50
2019-04-28T01:01:18.729Z,57.83
2019-04-28T01:03:24.410Z,53.00
2019-04-28T01:05:31.192Z,54.45
2019-04-28T01:07:36.996Z,52.25
2019-04-28T01:09:42.619Z,55.92
2019-04-28T01:11:48.284Z,50.20
2019-04-28T01:13:53.801Z,48.78
2019-04-28T01:16:01.066Z,50.45
2019-04-28T01:18:11.189Z,52.03
2019-04-28T01:20:19.660Z,48.00
2019-04-28T01:22:25.695Z,51.18
2019-04-28T01:24:31.216Z,50.85
2019-04-28T01:26:36.896Z,52.33
2019-04-28T01:28:42.487Z,51.35
2019-04-28T01:31:06.147Z,47.80
2019-04-28T01:33:16.276Z,54.30
2019-04-28T01:35:21.960Z,50.35
2019-04-28T01:37:27.471Z,51.50
2019-04-28T01:39:33.047Z,51.40
2019-04-28T01:41:39.769Z,55.43
2019-04-28T01:43:45.509Z,45.60
2019-04-28T01:45:51.083Z,50.63
2019-04-28T01:47:59.803Z,51.68
2019-04-28T01:50:05.593Z,50.17
2019-04-28T01:52:11.169Z,53.92
2019-04-28T01:54:16.858Z,46.88
2019-04-28T01:56:22.368Z,49.00
2019-04-28T01:58:29.561Z,48.98
2019-04-28T02:00:35.383Z,66.37
2019-04-28T02:02:40.970Z,53.60
2019-04-28T02:04:46.628Z,55.40
2019-04-28T02:06:53.204Z,56.35
2019-04-28T02:09:00.679Z,52.23
2019-04-28T02:11:07.816Z,47.20
2019-04-28T02:13:13.413Z,55.40
2019-04-28T02:15:20.211Z,44.53
2019-04-28T02:17:25.920Z,39.63
2019-04-28T02:19:33.049Z,48.05
2019-04-28T02:21:55.613Z,42.40
2019-04-28T02:24:19.369Z,45.95
2019-04-28T02:26:25.188Z,45.38
2019-04-28T02:28:30.706Z,75.80
2019-04-28T02:30:47.835Z,61.58
2019-04-28T02:32:43.510Z,70.35
2019-04-28T02:34:50.720Z,45.63
2019-04-28T02:36:56.687Z,59.48
2019-04-28T02:39:02.208Z,71.28
2019-04-28T02:41:11.120Z,43.13
2019-04-28T02:43:16.546Z,54.00
2019-04-28T02:45:22.410Z,59.95
2019-04-28T02:47:28.055Z,46.15
2019-04-28T02:49:52.508Z,45.67
2019-04-28T02:52:03.104Z,42.93
2019-04-28T02:54:10.410Z,45.55
2019-04-28T02:56:16.067Z,41.60
2019-04-28T02:58:22.364Z,44.08
2019-04-28T03:00:28.297Z,43.13
2019-04-28T03:02:33.962Z,38.80
2019-04-28T03:04:40.848Z,41.98
2019-04-28T03:06:46.782Z,40.70
2019-04-28T03:08:52.362Z,41.63
2019-04-28T03:11:00.627Z,40.98
2019-04-28T03:13:06.226Z,40.75
2019-04-28T03:15:11.989Z,38.02
2019-04-28T03:17:17.630Z,38.00
2019-04-28T03:19:24.287Z,42.62
2019-04-28T03:21:31.289Z,45.03
2019-04-28T03:23:36.954Z,45.25
2019-04-28T03:25:50.703Z,47.08
2019-04-28T03:28:00.517Z,46.37
2019-04-28T03:30:24.501Z,46.55
2019-04-28T03:32:45.680Z,45.85
2019-04-28T03:34:44.256Z,47.03
2019-04-28T03:36:51.876Z,47.55
2019-04-28T03:38:57.613Z,48.65
2019-04-28T03:41:03.272Z,46.73
2019-04-28T03:43:10.500Z,41.58
2019-04-28T03:45:17.770Z,36.93
2019-04-28T03:47:23.377Z,39.98
2019-04-28T03:49:33.321Z,39.80
2019-04-28T03:51:40.767Z,36.53
2019-04-28T03:53:46.053Z,40.15
2019-04-28T03:55:51.647Z,40.63
2019-04-28T03:57:57.287Z,39.98
2019-04-28T04:00:03.523Z,38.70
2019-04-28T04:02:11.353Z,44.10
2019-04-28T04:04:17.273Z,42.35
2019-04-28T04:06:22.906Z,43.78
2019-04-28T04:08:30.965Z,39.25
2019-04-28T04:10:44.246Z,39.55
2019-04-28T04:13:10.944Z,39.95
2019-04-28T04:15:41.281Z,36.80
2019-04-28T04:17:50.872Z,38.25
2019-04-28T04:19:55.663Z,35.08
2019-04-28T04:22:02.332Z,34.08
2019-04-28T04:24:10.663Z,34.55
2019-04-28T04:26:15.236Z,35.68
2019-04-28T04:28:20.855Z,34.63
2019-04-28T04:30:26.482Z,37.53
2019-04-28T04:32:33.927Z,33.08
2019-04-28T04:34:40.789Z,38.38
2019-04-28T04:36:46.505Z,38.42
2019-04-28T04:38:52.174Z,32.20
2019-04-28T04:40:57.759Z,35.92
2019-04-28T04:43:03.359Z,37.05
2019-04-28T04:45:10.540Z,37.40
2019-04-28T04:47:16.526Z,36.53
2019-04-28T04:49:22.177Z,31.05
2019-04-28T04:51:27.704Z,35.25
2019-04-28T04:53:33.224Z,35.40
2019-04-28T04:55:40.781Z,33.60
2019-04-28T04:57:46.025Z,31.97
2019-04-28T04:59:51.710Z,35.45
2019-04-28T05:02:26.609Z,33.23
2019-04-28T05:04:29.685Z,37.23
2019-04-28T05:06:41.492Z,34.67
2019-04-28T05:08:47.312Z,34.05
2019-04-28T05:10:52.903Z,33.28
2019-04-28T05:12:59.912Z,35.05
2019-04-28T05:15:07.159Z,36.53
2019-04-28T05:17:12.780Z,34.70
2019-04-28T05:19:19.885Z,34.73
2019-04-28T05:21:25.562Z,40.58
2019-04-28T05:23:35.725Z,41.45
2019-04-28T05:25:43.251Z,37.73
2019-04-28T05:27:50.002Z,35.45
2019-04-28T05:29:57.030Z,35.08
2019-04-28T05:32:03.606Z,41.08
2019-04-28T05:34:11.548Z,35.55
2019-04-28T05:36:16.724Z,36.08
2019-04-28T05:38:22.374Z,36.58
2019-04-28T05:40:29.558Z,34.40
2019-04-28T05:42:35.234Z,37.42
2019-04-28T05:44:41.003Z,37.70
2019-04-28T05:46:47.666Z,36.10
2019-04-28T05:48:57.743Z,32.25
2019-04-28T05:51:04.956Z,34.10
2019-04-28T05:53:19.267Z,33.80
2019-04-28T05:55:32.732Z,30.60
2019-04-28T05:57:40.040Z,31.45
2019-04-28T05:59:47.278Z,33.78
2019-04-28T06:02:00.677Z,31.05
2019-04-28T06:04:06.303Z,31.67
2019-04-28T06:06:11.892Z,28.35
2019-04-28T06:08:20.196Z,27.55
2019-04-28T06:10:25.883Z,24.07
2019-04-28T06:12:31.996Z,26.62
2019-04-28T06:14:37.732Z,28.27
2019-04-28T06:16:43.267Z,24.00
2019-04-28T06:18:50.068Z,25.37
2019-04-28T06:20:55.689Z,22.27
2019-04-28T06:23:01.294Z,21.42
2019-04-28T06:25:07.376Z,18.50
2019-04-28T06:27:13.194Z,17.17
2019-04-28T06:29:19.053Z,18.07
2019-04-28T06:31:24.771Z,17.10
2019-04-28T06:33:30.386Z,17.27
2019-04-28T06:35:36.410Z,16.05
2019-04-28T06:37:41.921Z,14.33
2019-04-28T06:39:47.500Z,15.88
2019-04-28T06:41:52.978Z,17.82
2019-04-28T06:43:58.511Z,13.85
2019-04-28T06:46:04.220Z,16.85
2019-04-28T06:48:09.742Z,28.38
2019-04-28T06:50:15.510Z,30.48
2019-04-28T06:52:21.121Z,21.97
2019-04-28T06:54:26.725Z,46.70
2019-04-28T06:56:32.258Z,18.60
2019-04-28T06:58:37.863Z,16.48
2019-04-28T07:00:43.515Z,17.12
2019-04-28T07:02:49.033Z,17.77
2019-04-28T07:05:01.666Z,13.78
2019-04-28T07:07:01.872Z,13.03
2019-04-28T07:09:07.950Z,11.10
2019-04-28T07:11:13.682Z,8.58
2019-04-28T07:13:20.654Z,8.98
2019-04-28T07:15:26.301Z,9.40
2019-04-28T07:17:31.923Z,11.00
2019-04-28T07:19:37.578Z,10.30
2019-04-28T07:22:00.306Z,11.05
2019-04-28T07:24:06.045Z,11.03
2019-04-28T07:26:11.633Z,8.90
2019-04-28T07:28:17.320Z,9.50
2019-04-28T07:30:23.581Z,11.18
2019-04-28T07:32:29.161Z,14.15
2019-04-28T07:34:34.811Z,9.93
2019-04-28T07:36:40.476Z,8.93
2019-04-28T07:38:46.052Z,8.65
2019-04-28T07:40:51.807Z,7.97
2019-04-28T07:42:57.356Z,10.78
2019-04-28T07:45:03.043Z,11.12
2019-04-28T07:47:09.128Z,12.75
2019-04-28T07:49:14.790Z,8.48
2019-04-28T07:51:22.002Z,10.00
2019-04-28T07:53:29.165Z,7.95
2019-04-28T07:55:34.861Z,9.10
2019-04-28T07:57:40.513Z,12.18
2019-04-28T07:59:46.096Z,9.40
2019-04-28T08:01:51.710Z,8.58
2019-04-28T08:03:57.601Z,9.75
2019-04-28T08:06:04.508Z,16.77
2019-04-28T08:08:10.113Z,10.72
2019-04-28T08:10:15.861Z,13.13
2019-04-28T08:12:21.436Z,9.53
2019-04-28T08:14:27.038Z,9.65
2019-04-28T08:16:33.696Z,9.00
2019-04-28T08:18:39.280Z,8.48
2019-04-28T08:20:44.862Z,9.58
2019-04-28T08:22:50.388Z,10.32
2019-04-28T08:24:55.910Z,9.48
2019-04-28T08:27:01.493Z,7.58
2019-04-28T08:29:07.165Z,11.15
2019-04-28T08:31:14.378Z,13.40
2019-04-28T08:33:27.656Z,10.30
2019-04-28T08:35:33.307Z,9.20
2019-04-28T08:37:38.899Z,8.85
2019-04-28T08:39:44.439Z,9.98
2019-04-28T08:41:49.966Z,9.48
2019-04-28T08:43:55.468Z,10.85
2019-04-28T08:46:01.126Z,11.93
2019-04-28T08:48:06.848Z,13.28
2019-04-28T08:50:12.914Z,12.07
2019-04-28T08:52:18.502Z,14.50
2019-04-28T08:54:24.117Z,13.28
2019-04-28T08:56:29.645Z,16.48
2019-04-28T08:58:35.270Z,16.27
2019-04-28T09:00:40.877Z,15.28
2019-04-28T09:02:46.401Z,18.67
2019-04-28T09:04:52.054Z,31.85
2019-04-28T09:06:57.679Z,33.45
2019-04-28T09:09:04.981Z,18.25
2019-04-28T09:11:11.492Z,20.82
2019-04-28T09:13:17.104Z,22.15
2019-04-28T09:15:25.028Z,31.85
2019-04-28T09:17:30.621Z,23.67
2019-04-28T09:19:36.923Z,12.28
2019-04-28T09:21:42.504Z,14.58
2019-04-28T09:23:48.018Z,23.70
2019-04-28T09:25:53.563Z,26.65
2019-04-28T09:27:59.129Z,23.83
2019-04-28T09:30:06.507Z,23.38
2019-04-28T09:32:12.128Z,57.25
2019-04-28T09:34:27.840Z,24.35
2019-04-28T09:36:24.867Z,35.98
2019-04-28T09:38:30.525Z,22.07
2019-04-28T09:40:36.156Z,15.88
2019-04-28T09:42:43.462Z,12.55
2019-04-28T09:44:49.081Z,32.13
2019-04-28T09:46:54.690Z,30.08
2019-04-28T09:49:00.273Z,18.87
2019-04-28T09:51:05.875Z,23.77
2019-04-28T09:53:11.622Z,23.35
2019-04-28T09:55:17.140Z,21.00
2019-04-28T09:57:23.807Z,15.95
2019-04-28T09:59:29.385Z,11.25
2019-04-28T10:01:34.964Z,11.55
2019-04-28T10:03:40.555Z,12.18
2019-04-28T10:05:46.816Z,14.45
2019-04-28T10:07:52.400Z,12.65
2019-04-28T10:09:58.032Z,14.93
2019-04-28T10:12:03.775Z,11.65
2019-04-28T10:14:09.460Z,12.85
2019-04-28T10:16:15.044Z,12.63
2019-04-28T10:18:20.638Z,16.90
2019-04-28T10:20:29.444Z,13.43
2019-04-28T10:22:36.077Z,13.68
2019-04-28T10:24:41.658Z,20.48
2019-04-28T10:26:47.178Z,19.07
2019-04-28T10:28:52.788Z,16.37
2019-04-28T10:30:58.297Z,13.48
2019-04-28T10:33:03.879Z,14.90
2019-04-28T10:35:09.983Z,13.58
2019-04-28T10:37:15.555Z,11.83
2019-04-28T10:39:25.835Z,12.85
2019-04-28T10:41:33.418Z,11.18
2019-04-28T10:43:39.451Z,11.75
2019-04-28T10:45:49.439Z,12.07
2019-04-28T10:47:55.201Z,11.45
2019-04-28T10:50:00.890Z,11.12
2019-04-28T10:52:06.741Z,13.78
2019-04-28T10:54:12.361Z,21.20
2019-04-28T10:56:17.953Z,10.13
2019-04-28T10:58:23.465Z,16.90
2019-04-28T11:00:30.825Z,10.72
2019-04-28T11:02:36.414Z,11.73
2019-04-28T11:04:43.652Z,10.15
2019-04-28T11:06:49.177Z,9.60
2019-04-28T11:09:05.545Z,10.05
2019-04-28T11:11:17.172Z,12.88
2019-04-28T11:13:22.879Z,16.15
2019-04-28T11:15:30.089Z,8.05
2019-04-28T11:17:35.660Z,16.65
2019-04-28T11:19:41.365Z,36.85
2019-04-28T11:21:46.962Z,21.15
2019-04-28T11:23:52.614Z,21.75
2019-04-28T11:25:58.297Z,11.60
2019-04-28T11:28:04.257Z,35.50
2019-04-28T11:30:10.267Z,13.35
2019-04-28T11:32:16.624Z,16.12
2019-04-28T11:34:23.863Z,11.53
2019-04-28T11:36:29.398Z,17.75
2019-04-28T11:38:35.064Z,11.20
2019-04-28T11:40:40.644Z,11.00
2019-04-28T11:42:46.311Z,10.55
2019-04-28T11:44:51.954Z,10.85
2019-04-28T11:46:57.541Z,9.55
2019-04-28T11:49:03.181Z,10.45
2019-04-28T11:51:08.778Z,13.08
2019-04-28T11:53:14.379Z,14.78
2019-04-28T11:55:19.890Z,12.15
2019-04-28T11:57:25.587Z,10.70
2019-04-28T11:59:31.095Z,12.03
2019-04-28T12:01:36.793Z,11.33
2019-04-28T12:03:42.314Z,12.78
2019-04-28T12:05:47.828Z,10.63
2019-04-28T12:07:53.409Z,13.88
2019-04-28T12:10:05.998Z,14.55
2019-04-28T12:12:27.055Z,18.23
2019-04-28T12:14:36.857Z,12.13
2019-04-28T12:16:53.053Z,17.17
2019-04-28T12:19:00.261Z,10.35
2019-04-28T12:21:05.929Z,15.58
2019-04-28T12:23:12.587Z,13.75
2019-04-28T12:25:18.176Z,14.58
2019-04-28T12:27:23.705Z,10.88
2019-04-28T12:29:29.225Z,15.72
2019-04-28T12:31:34.787Z,19.65
2019-04-28T12:33:40.357Z,17.65
2019-04-28T12:35:47.848Z,12.40
2019-04-28T12:37:53.221Z,14.30
2019-04-28T12:39:58.799Z,23.00
2019-04-28T12:42:04.729Z,16.17
2019-04-28T12:44:10.494Z,13.78
2019-04-28T12:46:16.075Z,11.70
2019-04-28T12:48:21.672Z,16.97
2019-04-28T12:50:38.269Z,17.90
2019-04-28T12:52:43.857Z,11.30
2019-04-28T12:54:49.517Z,10.95
2019-04-28T12:56:55.153Z,41.65
2019-04-28T12:59:02.441Z,14.58
2019-04-28T13:01:24.873Z,12.73
2019-04-28T13:03:37.929Z,12.40
2019-04-28T13:05:45.484Z,10.18
2019-04-28T13:07:51.123Z,12.88
2019-04-28T13:09:56.669Z,14.18
2019-04-28T13:12:03.901Z,22.40
2019-04-28T13:14:09.495Z,23.27
2019-04-28T13:16:15.157Z,27.37
2019-04-28T13:18:20.676Z,35.45
2019-04-28T13:20:26.272Z,22.00
2019-04-28T13:22:31.945Z,25.72
2019-04-28T13:24:37.537Z,19.42
2019-04-28T13:26:43.173Z,21.62
2019-04-28T13:28:49.791Z,30.50
2019-04-28T13:30:55.361Z,26.48
2019-04-28T13:33:00.957Z,22.13
2019-04-28T13:35:07.260Z,22.35
2019-04-28T13:37:12.863Z,25.52
2019-04-28T13:39:22.865Z,22.15
2019-04-28T13:41:28.450Z,22.40
2019-04-28T13:43:34.096Z,27.05
2019-04-28T13:45:39.731Z,23.40
2019-04-28T13:47:45.189Z,21.25
2019-04-28T13:49:52.505Z,28.10
2019-04-28T13:51:58.065Z,24.95
2019-04-28T13:54:05.316Z,22.98
2019-04-28T13:56:11.895Z,27.85
2019-04-28T13:58:19.082Z,25.25
2019-04-28T14:00:38.293Z,25.88
2019-04-28T14:02:45.616Z,19.62
2019-04-28T14:05:08.780Z,15.88
2019-04-28T14:07:14.455Z,18.30
2019-04-28T14:09:20.002Z,16.57
2019-04-28T14:11:25.572Z,30.68
2019-04-28T14:13:31.152Z,24.87
2019-04-28T14:15:36.773Z,43.42
2019-04-28T14:17:43.588Z,31.60
2019-04-28T14:19:49.153Z,25.60
2019-04-28T14:21:54.778Z,23.47
2019-04-28T14:24:00.693Z,28.30
2019-04-28T14:26:06.341Z,27.00
2019-04-28T14:28:11.942Z,30.23
2019-04-28T14:30:18.531Z,46.45
2019-04-28T14:32:24.019Z,36.05
2019-04-28T14:34:29.614Z,18.92
2019-04-28T14:36:41.941Z,19.67
2019-04-28T14:38:43.190Z,28.10
2019-04-28T14:40:48.895Z,25.65
2019-04-28T14:42:54.539Z,19.75
2019-04-28T14:45:00.075Z,21.45
2019-04-28T14:47:05.734Z,25.55
2019-04-28T14:49:11.365Z,18.60
2019-04-28T14:51:16.993Z,18.67
2019-04-28T14:53:22.543Z,20.30
2019-04-28T14:55:28.210Z,26.77
2019-04-28T14:57:33.845Z,20.08
2019-04-28T14:59:40.456Z,27.65
2019-04-28T15:04:23.836Z,27.62
2019-04-28T15:06:33.992Z,38.63
2019-04-28T15:08:58.938Z,26.73
2019-04-28T15:11:06.218Z,29.52
2019-04-28T15:13:11.881Z,20.85
2019-04-28T15:15:20.011Z,21.85
2019-04-28T15:17:24.749Z,28.15
2019-04-28T15:19:30.406Z,23.18
2019-04-28T15:21:36.012Z,28.50
2019-04-28T15:23:41.543Z,24.47
2019-04-28T15:25:47.100Z,21.75
2019-04-28T15:27:52.764Z,18.45
2019-04-28T15:29:58.421Z,31.25
2019-04-28T15:32:04.116Z,28.10
2019-04-28T15:34:09.770Z,19.73
2019-04-28T15:36:16.429Z,22.67
2019-04-28T15:38:22.064Z,23.67
2019-04-28T15:40:27.645Z,27.58
2019-04-28T15:42:33.215Z,29.55
2019-04-28T15:44:38.820Z,24.07
2019-04-28T15:46:44.484Z,23.52
2019-04-28T15:48:50.081Z,19.45
2019-04-28T15:50:55.600Z,23.77
2019-04-28T15:53:01.349Z,21.82
2019-04-28T15:55:09.681Z,30.48
2019-04-28T15:57:15.339Z,29.30
2019-04-28T15:59:21.230Z,30.85
2019-04-28T16:01:26.746Z,26.48
2019-04-28T16:03:32.382Z,26.27
2019-04-28T16:05:37.991Z,22.95
2019-04-28T16:07:43.569Z,27.58
2019-04-28T16:09:49.303Z,24.70
2019-04-28T16:11:54.888Z,25.15
2019-04-28T16:14:00.473Z,27.60
2019-04-28T16:16:06.251Z,24.95
2019-04-28T16:18:11.846Z,27.30
2019-04-28T16:20:17.497Z,30.55
2019-04-28T16:22:23.243Z,32.65
2019-04-28T16:24:28.837Z,38.40
2019-04-28T16:26:34.585Z,32.75
2019-04-28T16:28:40.212Z,35.92
2019-04-28T16:30:45.832Z,34.08
2019-04-28T16:32:51.420Z,38.48
2019-04-28T16:34:56.951Z,37.58
2019-04-28T16:37:02.551Z,41.50
2019-04-28T16:39:08.350Z,40.23
2019-04-28T16:41:17.399Z,40.88
2019-04-28T16:43:25.132Z,40.38
2019-04-28T16:45:30.724Z,50.70
2019-04-28T16:47:36.278Z,48.20
2019-04-28T16:49:41.875Z,49.85
2019-04-28T16:51:47.447Z,46.53
2019-04-28T16:53:53.065Z,45.80
2019-04-28T16:56:00.364Z,48.87
2019-04-28T16:58:07.655Z,47.35
2019-04-28T17:00:14.981Z,48.63
2019-04-28T17:02:28.035Z,49.93
2019-04-28T17:04:33.683Z,43.42
2019-04-28T17:06:39.266Z,42.67
2019-04-28T17:08:44.838Z,44.13
2019-04-28T17:10:50.605Z,48.30
2019-04-28T17:12:56.197Z,50.88
2019-04-28T17:15:01.834Z,49.45
2019-04-28T17:17:07.669Z,50.90
2019-04-28T17:19:13.332Z,42.27
2019-04-28T17:21:18.985Z,44.90
2019-04-28T17:23:24.647Z,46.40
2019-04-28T17:25:30.283Z,39.90
2019-04-28T17:27:36.100Z,53.25
2019-04-28T17:29:41.689Z,58.20
2019-04-28T17:31:47.393Z,46.68
2019-04-28T17:33:53.100Z,72.30
2019-04-28T17:35:58.675Z,54.23
2019-04-28T17:38:06.661Z,56.70
2019-04-28T17:40:12.528Z,55.63
2019-04-28T17:42:18.576Z,55.75
2019-04-28T17:44:24.330Z,72.47
2019-04-28T17:46:30.010Z,53.45
2019-04-28T17:48:37.241Z,53.23
2019-04-28T17:50:45.248Z,52.80
2019-04-28T17:52:50.038Z,46.40
2019-04-28T17:54:55.552Z,41.08
2019-04-28T17:57:01.295Z,43.50
2019-04-28T17:59:06.932Z,47.40
2019-04-28T18:01:17.136Z,46.42
2019-04-28T18:03:40.966Z,48.83
2019-04-28T18:05:49.318Z,44.73
2019-04-28T18:07:56.729Z,48.02
2019-04-28T18:10:03.235Z,42.98
2019-04-28T18:12:08.898Z,42.45
2019-04-28T18:14:14.419Z,45.17
2019-04-28T18:16:21.659Z,44.00
2019-04-28T18:18:28.875Z,45.43
2019-04-28T18:20:34.456Z,44.23
2019-04-28T18:22:40.126Z,44.35
2019-04-28T18:24:45.639Z,50.40
2019-04-28T18:26:51.256Z,55.05
2019-04-28T18:28:56.881Z,48.73
2019-04-28T18:31:05.033Z,46.60
2019-04-28T18:33:12.260Z,49.60
2019-04-28T18:38:02.356Z,51.50
2019-04-28T18:40:22.140Z,57.85
2019-04-28T18:42:35.360Z,51.68
2019-04-28T18:44:40.937Z,61.20
2019-04-28T18:46:46.479Z,60.23
2019-04-28T18:48:51.998Z,51.77
2019-04-28T18:50:57.577Z,63.30
2019-04-28T18:53:03.097Z,54.55
2019-04-28T18:55:09.313Z,55.73
2019-04-28T18:57:15.260Z,59.75
2019-04-28T18:59:24.276Z,69.40
2019-04-28T19:01:33.066Z,49.60
2019-04-28T19:03:38.664Z,57.03
2019-04-28T19:05:45.892Z,51.83
2019-04-28T19:08:01.990Z,52.20
2019-04-28T19:10:27.527Z,56.15
2019-04-28T19:12:43.924Z,62.83
2019-04-28T19:14:56.817Z,55.30
2019-04-28T19:17:05.173Z,58.42
2019-04-28T19:19:24.520Z,56.73
2019-04-28T19:21:30.036Z,56.77
2019-04-28T19:23:36.626Z,61.80
2019-04-28T19:25:42.249Z,58.63
2019-04-28T19:27:47.887Z,63.78
2019-04-28T19:29:53.547Z,60.55
2019-04-28T19:31:59.162Z,76.65
2019-04-28T19:34:04.814Z,68.72
2019-04-28T19:36:10.814Z,61.42
2019-04-28T19:38:16.543Z,65.37
2019-04-28T19:40:22.137Z,66.33
2019-04-28T19:42:27.772Z,68.60
2019-04-28T19:44:33.632Z,90.22
2019-04-28T19:46:40.070Z,63.02
2019-04-28T19:48:48.852Z,69.30
2019-04-28T19:50:55.426Z,74.40
2019-04-28T19:53:01.904Z,66.77
2019-04-28T19:55:09.552Z,65.47
2019-04-28T19:57:25.631Z,74.95
2019-04-28T19:59:32.805Z,75.10
2019-04-28T20:01:38.295Z,94.58
2019-04-28T20:03:43.982Z,57.30
2019-04-28T20:05:49.560Z,86.78
2019-04-28T20:07:55.071Z,62.50
2019-04-28T20:10:00.931Z,96.00
2019-04-28T20:12:06.928Z,67.17
2019-04-28T20:14:12.456Z,59.93
2019-04-28T20:16:18.112Z,60.10
2019-04-28T20:18:23.757Z,89.92
2019-04-28T20:20:29.336Z,57.08
2019-04-28T20:22:35.050Z,49.60
2019-04-28T20:24:46.881Z,45.90
2019-04-28T20:26:47.908Z,50.25
2019-04-28T20:28:53.473Z,64.32
2019-04-28T20:30:59.052Z,58.58
2019-04-28T20:33:07.344Z,88.33
2019-04-28T20:35:13.480Z,78.12
2019-04-28T20:37:20.942Z,57.83
2019-04-28T20:39:31.219Z,57.48
2019-04-28T20:41:36.808Z,46.63
2019-04-28T20:43:42.395Z,52.35
2019-04-28T20:45:47.979Z,40.35
2019-04-28T20:47:53.564Z,48.48
2019-04-28T20:49:59.136Z,48.83
2019-04-28T20:52:04.795Z,43.30
2019-04-28T20:54:10.400Z,62.73
2019-04-28T20:56:16.082Z,46.90
2019-04-28T20:58:21.789Z,45.88
2019-04-28T21:00:27.528Z,44.95
2019-04-28T21:02:33.178Z,47.58
2019-04-28T21:04:38.838Z,43.83
2019-04-28T21:06:44.505Z,37.05
2019-04-28T21:08:50.096Z,35.30
2019-04-28T21:10:56.934Z,35.52
2019-04-28T21:13:02.632Z,53.23
2019-04-28T21:15:09.122Z,41.00
2019-04-28T21:17:14.733Z,45.25
2019-04-28T21:19:20.354Z,43.87
2019-04-28T21:21:25.840Z,41.55
2019-04-28T21:23:32.576Z,40.75
2019-04-28T21:25:38.149Z,38.33
2019-04-28T21:27:43.717Z,39.65
2019-04-28T21:29:50.213Z,49.42
2019-04-28T21:31:55.845Z,39.70
2019-04-28T21:34:01.429Z,43.45
2019-04-28T21:36:07.019Z,40.00
2019-04-28T21:38:12.686Z,44.93
2019-04-28T21:40:18.824Z,41.13
2019-04-28T21:42:26.013Z,44.27
2019-04-28T21:44:45.182Z,46.42
2019-04-28T21:46:52.577Z,38.45
2019-04-28T21:49:03.505Z,37.40
2019-04-28T21:51:11.640Z,43.25
2019-04-28T21:53:16.273Z,48.28
2019-04-28T21:55:21.772Z,42.75
2019-04-28T21:57:28.541Z,45.75
2019-04-28T21:59:34.132Z,43.15
2019-04-28T22:01:40.057Z,45.48
2019-04-28T22:03:45.988Z,49.30
2019-04-28T22:05:51.641Z,43.90
2019-04-28T22:07:58.325Z,41.58
2019-04-28T22:10:06.028Z,39.45
2019-04-28T22:12:11.777Z,47.25
2019-04-28T22:14:17.350Z,44.80
2019-04-28T22:16:22.928Z,40.80
2019-04-28T22:18:28.448Z,35.15
2019-04-28T22:20:35.020Z,43.30
2019-04-28T22:22:40.569Z,36.33
2019-04-28T22:24:47.793Z,34.25
2019-04-28T22:26:55.027Z,34.88
2019-04-28T22:29:00.558Z,38.23
2019-04-28T22:31:06.268Z,41.30
2019-04-28T22:33:11.779Z,36.98
2019-04-28T22:35:17.534Z,41.83
2019-04-28T22:37:23.052Z,42.05
2019-04-28T22:39:28.612Z,47.88
2019-04-28T22:41:34.243Z,39.95
2019-04-28T22:43:41.049Z,44.50
2019-04-28T22:45:46.564Z,45.43
2019-04-28T22:47:52.127Z,51.08
2019-04-28T22:50:01.397Z,44.27
2019-04-28T22:52:08.333Z,42.13
2019-04-28T22:54:18.348Z,43.73
2019-04-28T22:56:25.553Z,48.28
2019-04-28T22:58:33.780Z,45.65
2019-04-28T23:00:41.110Z,47.48
2019-04-28T23:02:47.824Z,37.65
2019-04-28T23:05:03.976Z,42.93
2019-04-28T23:07:09.757Z,41.48
2019-04-28T23:09:16.980Z,39.70
2019-04-28T23:11:22.708Z,39.40
2019-04-28T23:13:28.375Z,35.17
2019-04-28T23:15:35.357Z,39.08
2019-04-28T23:17:40.984Z,40.45
2019-04-28T23:19:46.924Z,34.45
2019-04-28T23:21:56.589Z,35.25
2019-04-28T23:24:02.176Z,37.30
2019-04-28T23:26:07.848Z,34.58
2019-04-28T23:28:13.421Z,33.85
2019-04-28T23:30:34.339Z,26.95
2019-04-28T23:32:39.921Z,27.80
2019-04-28T23:34:46.500Z,26.70
2019-04-28T23:36:52.019Z,27.58
2019-04-28T23:38:57.650Z,32.28
2019-04-28T23:41:13.812Z,28.98
2019-04-28T23:43:22.097Z,28.05
2019-04-28T23:45:27.745Z,27.42
2019-04-28T23:47:33.252Z,25.32
2019-04-28T23:49:39.844Z,27.15
2019-04-28T23:51:47.073Z,26.45
2019-04-28T23:53:57.273Z,26.73
2019-04-28T23:56:02.872Z,24.70
2019-04-28T23:58:08.464Z,25.90
